createdAt,value
2018-05-21T00:00:33.920Z,66.29
2018-05-21T00:01:34.120Z,66.67
2018-05-21T00:02:33.882Z,66.38
2018-05-21T00:03:34.079Z,66.58
2018-05-21T00:04:33.997Z,67.25
2018-05-21T00:05:33.995Z,67.25
2018-05-21T00:06:33.897Z,67.63
2018-05-21T00:07:34.087Z,67.15
2018-05-21T00:08:33.969Z,68.01
2018-05-21T00:09:33.918Z,68.01
2018-05-21T00:10:33.915Z,68.40
2018-05-21T00:11:34.201Z,67.98
2018-05-21T00:12:33.930Z,67.82
2018-05-21T00:13:33.898Z,68.49
2018-05-21T00:14:34.027Z,68.30
2018-05-21T00:15:34.155Z,68.36
2018-05-21T00:16:33.939Z,68.46
2018-05-21T00:17:34.034Z,68.46
2018-05-21T00:18:33.942Z,68.46
2018-05-21T00:19:33.991Z,68.46
2018-05-21T00:20:33.966Z,68.55
2018-05-21T00:21:33.941Z,68.17
2018-05-21T00:22:34.021Z,68.27
2018-05-21T00:23:34.081Z,68.94
2018-05-21T00:24:34.005Z,68.17
2018-05-21T00:25:34.016Z,68.84
2018-05-21T00:26:33.946Z,68.36
2018-05-21T00:27:34.345Z,68.46
2018-05-21T00:28:33.965Z,67.79
2018-05-21T00:29:33.954Z,67.79
2018-05-21T00:30:33.981Z,68.27
2018-05-21T00:31:34.041Z,67.88
2018-05-21T00:32:33.996Z,67.98
2018-05-21T00:33:33.987Z,68.17
2018-05-21T00:34:33.993Z,68.74
2018-05-21T00:35:33.988Z,69.03
2018-05-21T00:36:34.016Z,69.19
2018-05-21T00:37:34.014Z,69.32
2018-05-21T00:38:34.054Z,69.32
2018-05-21T00:39:34.929Z,69.00
2018-05-21T00:40:34.233Z,69.51
2018-05-21T00:41:33.973Z,68.84
2018-05-21T00:42:34.432Z,69.51
2018-05-21T00:43:34.189Z,68.90
2018-05-21T00:44:34.101Z,70.18
2018-05-21T00:45:34.045Z,69.29
2018-05-21T00:46:34.020Z,69.70
2018-05-21T00:47:33.989Z,69.95
2018-05-21T00:48:34.040Z,69.67
2018-05-21T00:49:34.067Z,69.95
2018-05-21T00:50:34.029Z,69.95
2018-05-21T00:51:34.279Z,70.05
2018-05-21T00:52:34.066Z,70.05
2018-05-21T00:53:34.397Z,70.05
2018-05-21T00:54:34.132Z,69.76
2018-05-21T00:55:34.073Z,70.05
2018-05-21T00:56:34.012Z,69.86
2018-05-21T00:57:34.037Z,70.24
2018-05-21T00:58:34.215Z,69.95
2018-05-21T00:59:34.058Z,69.95
2018-05-21T01:00:34.058Z,69.76
2018-05-21T01:01:34.109Z,70.43
2018-05-21T01:02:34.014Z,70.15
2018-05-21T01:03:34.150Z,70.15
2018-05-21T01:04:34.058Z,70.15
2018-05-21T01:05:34.061Z,70.62
2018-05-21T01:06:34.124Z,70.53
2018-05-21T01:07:34.055Z,70.62
2018-05-21T01:08:34.082Z,69.76
2018-05-21T01:09:34.052Z,70.53
2018-05-21T01:10:34.045Z,70.62
2018-05-21T01:11:34.101Z,70.15
2018-05-21T01:12:34.081Z,69.76
2018-05-21T01:13:34.105Z,70.05
2018-05-21T01:14:34.091Z,69.95
2018-05-21T01:15:34.172Z,69.76
2018-05-21T01:16:34.111Z,69.76
2018-05-21T01:17:34.067Z,70.15
2018-05-21T01:18:34.246Z,70.05
2018-05-21T01:19:34.086Z,69.19
2018-05-21T01:20:34.061Z,69.00
2018-05-21T01:21:34.138Z,69.76
2018-05-21T01:22:34.120Z,69.09
2018-05-21T01:23:34.152Z,69.48
2018-05-21T01:24:34.169Z,69.19
2018-05-21T01:25:34.156Z,69.57
2018-05-21T01:26:34.096Z,69.09
2018-05-21T01:27:34.159Z,69.09
2018-05-21T01:28:34.078Z,68.90
2018-05-21T01:29:34.105Z,69.29
2018-05-21T01:30:34.101Z,68.42
2018-05-21T01:31:34.151Z,68.62
2018-05-21T01:32:34.101Z,68.23
2018-05-21T01:33:34.121Z,67.94
2018-05-21T01:34:34.172Z,68.13
2018-05-21T01:35:34.129Z,68.42
2018-05-21T01:36:34.159Z,68.13
2018-05-21T01:37:34.168Z,68.23
2018-05-21T01:38:34.233Z,67.94
2018-05-21T01:39:34.181Z,68.13
2018-05-21T01:46:44.461Z,66.93
2018-05-21T01:48:05.409Z,66.93
2018-05-21T01:48:44.510Z,67.21
2018-05-21T01:49:44.424Z,66.70
2018-05-21T01:51:08.186Z,67.21
2018-05-21T01:51:44.425Z,66.89
2018-05-21T01:52:44.453Z,66.89
2018-05-21T01:53:44.447Z,66.89
2018-05-21T01:54:44.471Z,66.99
2018-05-21T01:55:44.458Z,67.31
2018-05-21T01:56:44.455Z,67.27
2018-05-21T01:57:44.488Z,67.08
2018-05-21T01:58:44.468Z,67.21
2018-05-21T01:59:44.458Z,66.93
2018-05-21T02:00:44.478Z,67.31
2018-05-21T02:01:44.505Z,67.18
2018-05-21T02:02:44.494Z,67.37
2018-05-21T02:03:44.488Z,67.56
2018-05-21T02:04:44.504Z,67.18
2018-05-21T02:05:44.517Z,67.27
2018-05-21T02:06:44.620Z,66.80
2018-05-21T02:07:44.470Z,66.89
2018-05-21T02:08:44.647Z,66.99
2018-05-21T02:09:44.517Z,67.08
2018-05-21T02:10:44.560Z,67.08
2018-05-21T02:11:44.504Z,67.66
2018-05-21T02:12:44.503Z,66.99
2018-05-21T02:13:44.503Z,67.27
2018-05-21T02:14:44.516Z,67.56
2018-05-21T02:15:44.569Z,66.80
2018-05-21T02:16:44.596Z,66.80
2018-05-21T02:17:44.543Z,67.56
2018-05-21T02:18:44.478Z,68.13
2018-05-21T02:19:44.504Z,67.76
2018-05-21T02:20:44.614Z,67.76
2018-05-21T02:21:44.510Z,67.94
2018-05-21T02:22:44.584Z,67.94
2018-05-21T02:23:44.549Z,67.56
2018-05-21T02:24:44.531Z,68.23
2018-05-21T02:25:44.518Z,68.23
2018-05-21T02:26:44.548Z,68.33
2018-05-21T02:27:44.518Z,68.33
2018-05-21T02:28:44.570Z,67.94
2018-05-21T02:29:44.523Z,68.33
2018-05-21T02:30:44.514Z,68.23
2018-05-21T02:31:44.534Z,68.10
2018-05-21T02:32:44.541Z,68.20
2018-05-21T02:33:44.543Z,68.42
2018-05-21T02:34:44.565Z,68.13
2018-05-21T02:35:44.527Z,67.94
2018-05-21T02:36:44.635Z,68.52
2018-05-21T02:37:44.575Z,68.87
2018-05-21T02:38:44.562Z,68.58
2018-05-21T02:39:44.543Z,68.77
2018-05-21T02:40:44.604Z,68.77
2018-05-21T02:41:44.587Z,68.87
2018-05-21T02:42:44.590Z,68.77
2018-05-21T02:43:44.611Z,69.25
2018-05-21T02:44:44.576Z,69.25
2018-05-21T02:45:44.591Z,68.77
2018-05-21T02:46:44.550Z,68.87
2018-05-21T02:47:44.576Z,69.06
2018-05-21T02:48:44.558Z,69.06
2018-05-21T02:49:44.673Z,69.44
2018-05-21T02:50:44.592Z,68.96
2018-05-21T02:51:44.578Z,69.06
2018-05-21T02:52:44.599Z,69.25
2018-05-21T02:53:44.585Z,69.06
2018-05-21T02:54:44.594Z,69.25
2018-05-21T02:55:44.573Z,69.73
2018-05-21T02:56:44.597Z,69.92
2018-05-21T02:57:44.701Z,69.64
2018-05-21T02:58:44.596Z,69.92
2018-05-21T02:59:44.598Z,70.21
2018-05-21T03:00:44.622Z,70.21
2018-05-21T03:01:44.587Z,70.21
2018-05-21T03:02:44.611Z,70.87
2018-05-21T03:03:44.621Z,70.30
2018-05-21T03:04:44.587Z,70.59
2018-05-21T03:05:44.626Z,70.68
2018-05-21T03:06:44.637Z,71.07
2018-05-21T03:07:44.590Z,70.87
2018-05-21T03:08:44.610Z,70.68
2018-05-21T03:09:44.602Z,70.30
2018-05-21T03:10:44.642Z,70.01
2018-05-21T03:11:44.673Z,70.59
2018-05-21T03:12:44.639Z,70.50
2018-05-21T03:13:44.617Z,70.97
2018-05-21T03:14:44.681Z,70.68
2018-05-21T03:15:44.795Z,70.59
2018-05-21T03:16:44.635Z,70.59
2018-05-21T03:17:44.683Z,70.11
2018-05-21T03:18:44.747Z,70.21
2018-05-21T03:19:44.701Z,70.68
2018-05-21T03:20:44.677Z,70.50
2018-05-21T03:21:44.622Z,69.73
2018-05-21T03:22:44.687Z,70.40
2018-05-21T03:23:44.706Z,70.50
2018-05-21T03:24:44.677Z,70.11
2018-05-21T03:25:44.679Z,70.50
2018-05-21T03:26:44.670Z,69.82
2018-05-21T03:27:44.725Z,69.82
2018-05-21T03:28:44.697Z,69.73
2018-05-21T03:29:44.646Z,69.54
2018-05-21T03:30:44.686Z,69.82
2018-05-21T03:31:44.681Z,69.73
2018-05-21T03:32:44.754Z,69.92
2018-05-21T03:33:44.699Z,69.92
2018-05-21T03:34:44.685Z,69.92
2018-05-21T03:35:44.744Z,70.01
2018-05-21T03:36:44.700Z,69.92
2018-05-21T03:37:44.700Z,69.92
2018-05-21T03:38:45.727Z,70.21
2018-05-21T03:39:44.737Z,70.40
2018-05-21T03:40:44.713Z,69.64
2018-05-21T03:41:44.741Z,69.92
2018-05-21T03:42:44.690Z,69.82
2018-05-21T03:43:44.688Z,69.64
2018-05-21T03:44:44.682Z,69.82
2018-05-21T03:45:44.719Z,70.01
2018-05-21T03:46:44.696Z,69.82
2018-05-21T03:47:44.706Z,69.82
2018-05-21T03:48:44.771Z,69.82
2018-05-21T03:49:44.716Z,69.92
2018-05-21T03:50:44.722Z,69.82
2018-05-21T03:51:44.820Z,69.82
2018-05-21T03:52:44.692Z,69.82
2018-05-21T03:53:44.771Z,69.64
2018-05-21T03:54:44.746Z,69.82
2018-05-21T03:55:44.757Z,70.01
2018-05-21T03:56:44.724Z,69.64
2018-05-21T03:57:44.713Z,70.01
2018-05-21T03:58:44.775Z,70.01
2018-05-21T03:59:44.743Z,70.01
2018-05-21T04:00:44.793Z,69.92
2018-05-21T04:01:44.734Z,70.01
2018-05-21T04:02:44.807Z,70.21
2018-05-21T04:03:44.761Z,70.01
2018-05-21T04:04:44.815Z,69.82
2018-05-21T04:05:44.836Z,70.01
2018-05-21T04:06:44.755Z,70.21
2018-05-21T04:07:44.775Z,70.11
2018-05-21T04:08:44.747Z,69.92
2018-05-21T04:09:44.762Z,70.11
2018-05-21T04:10:44.766Z,70.01
2018-05-21T04:11:44.770Z,70.01
2018-05-21T04:12:44.771Z,69.82
2018-05-21T04:13:44.779Z,69.92
2018-05-21T04:14:44.847Z,69.73
2018-05-21T04:15:44.748Z,70.05
2018-05-21T04:16:44.812Z,70.01
2018-05-21T04:17:44.801Z,70.05
2018-05-21T04:18:44.788Z,69.86
2018-05-21T04:19:44.832Z,69.76
2018-05-21T04:20:44.876Z,69.95
2018-05-21T04:21:44.820Z,69.86
2018-05-21T04:22:44.831Z,69.76
2018-05-21T04:23:44.777Z,69.95
2018-05-21T04:24:44.804Z,69.86
2018-05-21T04:25:44.796Z,70.15
2018-05-21T04:26:44.797Z,70.05
2018-05-21T04:27:44.795Z,70.15
2018-05-21T04:28:44.789Z,70.24
2018-05-21T04:29:44.827Z,69.48
2018-05-21T04:30:44.883Z,69.38
2018-05-21T04:31:44.873Z,69.38
2018-05-21T04:32:44.840Z,69.09
2018-05-21T04:33:44.811Z,69.48
2018-05-21T04:34:44.869Z,70.15
2018-05-21T04:35:44.821Z,69.19
2018-05-21T04:36:44.895Z,69.29
2018-05-21T04:37:44.833Z,69.38
2018-05-21T04:38:44.865Z,69.48
2018-05-21T04:39:44.805Z,69.09
2018-05-21T04:40:44.825Z,69.57
2018-05-21T04:41:44.840Z,69.57
2018-05-21T04:42:44.842Z,69.09
2018-05-21T04:43:44.886Z,69.29
2018-05-21T04:44:44.839Z,68.71
2018-05-21T04:45:44.903Z,68.71
2018-05-21T04:46:44.848Z,69.00
2018-05-21T04:47:44.861Z,68.90
2018-05-21T04:48:44.851Z,69.03
2018-05-21T04:49:45.048Z,68.71
2018-05-21T04:50:44.860Z,68.71
2018-05-21T04:51:44.901Z,68.90
2018-05-21T04:52:44.888Z,68.74
2018-05-21T04:53:44.848Z,69.13
2018-05-21T04:54:44.823Z,69.19
2018-05-21T04:55:45.639Z,68.94
2018-05-21T04:56:44.876Z,69.13
2018-05-21T04:57:44.859Z,69.03
2018-05-21T04:58:44.864Z,68.84
2018-05-21T04:59:44.869Z,69.23
2018-05-21T05:00:44.878Z,68.94
2018-05-21T05:01:44.853Z,69.32
2018-05-21T05:02:44.878Z,68.65
2018-05-21T05:03:44.985Z,68.55
2018-05-21T05:04:44.911Z,68.65
2018-05-21T05:05:44.928Z,68.40
2018-05-21T05:06:44.855Z,68.78
2018-05-21T05:07:44.920Z,68.97
2018-05-21T05:08:45.012Z,68.27
2018-05-21T05:09:44.912Z,68.46
2018-05-21T05:10:44.952Z,68.97
2018-05-21T05:11:44.933Z,68.59
2018-05-21T05:12:44.923Z,68.49
2018-05-21T05:13:44.927Z,68.30
2018-05-21T05:14:45.012Z,68.11
2018-05-21T05:15:44.916Z,68.11
2018-05-21T05:16:45.020Z,68.11
2018-05-21T05:17:45.043Z,68.33
2018-05-21T05:18:44.926Z,67.85
2018-05-21T05:19:45.026Z,68.14
2018-05-21T05:20:45.015Z,67.28
2018-05-21T05:21:44.999Z,66.10
2018-05-21T05:22:44.967Z,64.22
2018-05-21T05:23:44.954Z,61.20
2018-05-21T05:24:45.046Z,59.95
2018-05-21T05:25:44.968Z,59.92
2018-05-21T05:26:45.116Z,57.35
2018-05-21T05:27:44.962Z,56.05
2018-05-21T05:28:44.923Z,54.22
2018-05-21T05:29:44.958Z,54.32
2018-05-21T05:30:44.998Z,54.87
2018-05-21T05:31:45.066Z,53.00
2018-05-21T05:32:44.972Z,51.77
2018-05-21T05:33:44.979Z,52.01
2018-05-21T05:34:44.964Z,52.83
2018-05-21T05:35:45.049Z,52.35
2018-05-21T05:36:44.991Z,51.48
2018-05-21T05:37:45.121Z,51.51
2018-05-21T05:38:45.052Z,50.62
2018-05-21T05:39:45.013Z,51.80
2018-05-21T05:40:45.015Z,51.29
2018-05-21T05:41:44.985Z,52.04
2018-05-21T05:42:44.999Z,53.94
2018-05-21T05:43:45.035Z,52.81
2018-05-21T05:44:45.026Z,54.13
2018-05-21T05:45:45.020Z,56.29
2018-05-21T05:46:45.041Z,57.21
2018-05-21T05:47:45.039Z,55.09
2018-05-21T05:48:45.094Z,54.06
2018-05-21T05:49:45.090Z,55.90
2018-05-21T05:50:44.994Z,57.99
2018-05-21T05:51:44.991Z,58.67
2018-05-21T05:52:45.046Z,59.60
2018-05-21T05:53:45.109Z,60.34
2018-05-21T05:54:45.020Z,61.43
2018-05-21T05:55:45.025Z,59.22
2018-05-21T05:56:45.077Z,60.75
2018-05-21T05:57:45.014Z,61.04
2018-05-21T05:58:45.064Z,60.46
2018-05-21T05:59:45.110Z,61.14
2018-05-21T06:00:45.075Z,60.08
2018-05-21T06:01:45.054Z,60.46
2018-05-21T06:02:45.681Z,60.39
2018-05-21T06:03:45.132Z,59.66
2018-05-21T06:04:45.058Z,58.44
2018-05-21T06:05:45.073Z,57.53
2018-05-21T06:06:45.086Z,56.15
2018-05-21T06:07:45.192Z,57.02
2018-05-21T06:08:45.085Z,56.54
2018-05-21T06:09:45.120Z,57.02
2018-05-21T06:10:45.128Z,54.60
2018-05-21T06:11:45.159Z,52.79
2018-05-21T06:12:45.106Z,50.91
2018-05-21T06:13:45.246Z,50.71
2018-05-21T06:14:45.173Z,49.65
2018-05-21T06:15:45.117Z,51.53
2018-05-21T06:16:45.196Z,51.85
2018-05-21T06:17:45.128Z,50.28
2018-05-21T06:18:45.172Z,48.18
2018-05-21T06:19:45.244Z,48.61
2018-05-21T06:20:45.262Z,48.32
2018-05-21T06:21:45.170Z,49.46
2018-05-21T06:22:45.168Z,49.41
2018-05-21T06:23:45.195Z,49.10
2018-05-21T06:24:45.271Z,49.10
2018-05-21T06:25:45.296Z,50.71
2018-05-21T06:26:45.206Z,50.81
2018-05-21T06:27:45.217Z,51.85
2018-05-21T06:28:45.232Z,50.91
2018-05-21T06:29:45.265Z,50.07
2018-05-21T06:30:45.315Z,49.02
2018-05-21T06:31:45.325Z,49.00
2018-05-21T06:32:45.247Z,48.64
2018-05-21T06:33:45.265Z,47.89
2018-05-21T06:34:45.380Z,48.47
2018-05-21T06:35:45.301Z,48.64
2018-05-21T06:36:45.295Z,48.18
2018-05-21T06:37:45.298Z,47.55
2018-05-21T06:38:45.335Z,47.79
2018-05-21T06:39:45.291Z,47.60
2018-05-21T06:40:45.296Z,47.81
2018-05-21T06:41:45.315Z,48.08
2018-05-21T06:42:45.296Z,48.54
2018-05-21T06:43:45.362Z,49.54
2018-05-21T06:44:45.416Z,49.87
2018-05-21T06:45:45.378Z,49.54
2018-05-21T06:46:45.506Z,47.64
2018-05-21T06:47:45.432Z,47.94
2018-05-21T06:48:45.375Z,50.13
2018-05-21T06:49:45.381Z,49.56
2018-05-21T06:50:45.378Z,47.45
2018-05-21T06:51:45.423Z,46.77
2018-05-21T06:52:45.444Z,46.19
2018-05-21T06:53:45.643Z,47.60
2018-05-21T06:54:45.599Z,49.29
2018-05-21T06:55:45.459Z,50.91
2018-05-21T06:56:45.443Z,50.50
2018-05-21T06:57:45.515Z,48.57
2018-05-21T06:58:45.577Z,47.43
2018-05-21T06:59:45.555Z,47.62
2018-05-21T07:00:45.580Z,48.01
2018-05-21T07:01:45.501Z,46.80
2018-05-21T07:02:45.565Z,45.65
2018-05-21T07:03:45.506Z,47.72
2018-05-21T07:04:45.551Z,47.52
2018-05-21T07:05:46.203Z,47.60
2018-05-21T07:06:45.636Z,49.90
2018-05-21T07:07:45.600Z,51.01
2018-05-21T07:08:45.686Z,50.09
2018-05-21T07:09:45.628Z,48.81
2018-05-21T07:10:45.619Z,46.60
2018-05-21T07:11:45.775Z,46.62
2018-05-21T07:12:45.572Z,47.81
2018-05-21T07:13:45.686Z,49.63
2018-05-21T07:14:45.752Z,49.85
2018-05-21T07:15:45.921Z,49.92
2018-05-21T07:16:45.653Z,50.38
2018-05-21T07:17:45.730Z,49.37
2018-05-21T07:18:45.762Z,48.11
2018-05-21T07:19:45.727Z,49.44
2018-05-21T07:20:45.823Z,49.46
2018-05-21T07:21:45.756Z,49.07
2018-05-21T07:22:45.755Z,48.79
2018-05-21T07:23:46.711Z,48.74
2018-05-21T07:24:45.796Z,45.89
2018-05-21T07:25:45.932Z,45.47
2018-05-21T07:26:45.812Z,46.60
2018-05-21T07:27:45.865Z,46.62
2018-05-21T07:28:45.913Z,46.43
2018-05-21T07:29:45.815Z,45.62
2018-05-21T07:30:45.841Z,43.73
2018-05-21T07:31:46.005Z,44.05
2018-05-21T07:32:45.879Z,45.21
2018-05-21T07:33:45.846Z,44.92
2018-05-21T07:34:45.946Z,45.04
2018-05-21T07:35:46.736Z,44.40
2018-05-21T07:36:45.928Z,45.12
2018-05-21T07:37:45.930Z,45.39
2018-05-21T07:38:45.966Z,46.45
2018-05-21T07:39:46.044Z,45.80
2018-05-21T07:40:46.068Z,44.97
2018-05-21T07:41:46.183Z,45.20
2018-05-21T07:42:46.025Z,46.62
2018-05-21T07:43:46.026Z,45.61
2018-05-21T07:44:46.044Z,44.78
2018-05-21T07:45:46.054Z,44.51
2018-05-21T07:46:46.192Z,45.53
2018-05-21T07:47:46.061Z,45.07
2018-05-21T07:48:46.090Z,43.58
2018-05-21T07:49:46.078Z,42.70
2018-05-21T07:50:46.078Z,42.60
2018-05-21T07:51:46.148Z,41.28
2018-05-21T07:52:46.337Z,41.19
2018-05-21T07:53:46.212Z,41.44
2018-05-21T07:54:46.162Z,41.32
2018-05-21T07:55:46.122Z,44.09
2018-05-21T07:56:46.216Z,43.44
2018-05-21T07:57:46.163Z,44.07
2018-05-21T07:58:46.191Z,45.36
2018-05-21T07:59:46.253Z,44.14
2018-05-21T08:00:46.750Z,46.45
2018-05-21T08:01:46.244Z,48.27
2018-05-21T08:02:46.367Z,45.97
2018-05-21T08:03:46.329Z,42.74
2018-05-21T08:04:46.354Z,40.99
2018-05-21T08:05:46.422Z,41.53
2018-05-21T08:06:46.397Z,42.78
2018-05-21T08:07:47.238Z,42.60
2018-05-21T08:08:46.414Z,43.24
2018-05-21T08:09:46.406Z,44.75
2018-05-21T08:10:46.560Z,45.24
2018-05-21T08:11:46.459Z,46.92
2018-05-21T08:12:46.563Z,46.67
2018-05-21T08:13:46.484Z,46.50
2018-05-21T08:14:46.571Z,47.13
2018-05-21T08:15:46.499Z,47.45
2018-05-21T08:16:46.590Z,46.50
2018-05-21T08:17:46.548Z,44.51
2018-05-21T08:18:46.473Z,44.43
2018-05-21T08:19:46.562Z,44.82
2018-05-21T08:20:46.501Z,45.24
2018-05-21T08:21:46.584Z,45.57
2018-05-21T08:22:46.606Z,45.57
2018-05-21T08:23:46.792Z,44.33
2018-05-21T08:24:46.609Z,43.30
2018-05-21T08:25:46.590Z,42.82
2018-05-21T08:26:46.994Z,44.72
2018-05-21T08:27:47.427Z,43.21
2018-05-21T08:28:46.669Z,44.62
2018-05-21T08:29:46.693Z,45.62
2018-05-21T08:30:46.766Z,46.33
2018-05-21T08:31:46.724Z,45.40
2018-05-21T08:32:46.914Z,45.57
2018-05-21T08:33:46.819Z,44.35
2018-05-21T08:34:46.877Z,44.14
2018-05-21T08:35:46.954Z,44.82
2018-05-21T08:36:46.817Z,43.48
2018-05-21T08:37:46.796Z,43.55
2018-05-21T08:38:47.088Z,45.82
2018-05-21T08:39:47.084Z,46.98
2018-05-21T08:40:47.037Z,45.75
2018-05-21T08:41:47.017Z,46.28
2018-05-21T08:42:47.082Z,47.23
2018-05-21T08:43:47.117Z,46.72
2018-05-21T08:44:46.921Z,47.83
2018-05-21T08:45:47.023Z,47.64
2018-05-21T08:46:47.139Z,47.91
2018-05-21T08:47:47.001Z,47.93
2018-05-21T08:48:47.027Z,45.57
2018-05-21T08:49:47.163Z,44.87
2018-05-21T08:50:47.157Z,45.55
2018-05-21T08:51:47.029Z,45.50
2018-05-21T08:52:47.083Z,44.24
2018-05-21T08:53:47.092Z,44.56
2018-05-21T08:54:47.149Z,46.06
2018-05-21T08:55:47.162Z,45.38
2018-05-21T08:56:47.341Z,44.24
2018-05-21T08:57:47.141Z,43.77
2018-05-21T08:58:47.316Z,43.48
2018-05-21T08:59:47.779Z,43.38
2018-05-21T09:00:47.243Z,44.92
2018-05-21T09:01:47.277Z,43.67
2018-05-21T09:02:47.291Z,44.68
2018-05-21T09:03:47.233Z,45.69
2018-05-21T09:04:47.377Z,45.01
2018-05-21T09:05:47.368Z,43.77
2018-05-21T09:06:47.344Z,42.88
2018-05-21T09:07:47.359Z,42.14
2018-05-21T09:08:47.565Z,42.70
2018-05-21T09:09:47.372Z,44.04
2018-05-21T09:10:47.501Z,45.38
2018-05-21T09:11:47.467Z,45.40
2018-05-21T09:12:47.418Z,43.11
2018-05-21T09:13:47.644Z,42.56
2018-05-21T09:14:47.506Z,44.87
2018-05-21T09:15:47.721Z,45.31
2018-05-21T09:26:07.196Z,44.18
2018-05-21T09:27:08.387Z,43.75
2018-05-21T09:28:08.677Z,45.21
2018-05-21T09:29:07.741Z,43.33
2018-05-21T09:30:06.456Z,41.36
2018-05-21T09:31:06.456Z,42.60
2018-05-21T09:32:06.433Z,42.63
2018-05-21T09:33:06.443Z,42.41
2018-05-21T09:34:06.517Z,43.30
2018-05-21T09:35:06.480Z,43.78
2018-05-21T09:36:06.560Z,44.09
2018-05-21T09:37:06.531Z,43.16
2018-05-21T09:38:06.538Z,41.65
2018-05-21T09:39:06.566Z,40.73
2018-05-21T09:40:06.654Z,42.71
2018-05-21T09:41:06.631Z,43.24
2018-05-21T09:42:06.726Z,41.75
2018-05-21T09:43:06.694Z,40.31
2018-05-21T09:44:06.656Z,40.37
2018-05-21T09:45:06.694Z,41.80
2018-05-21T09:46:06.721Z,41.80
2018-05-21T09:47:06.723Z,41.06
2018-05-21T09:48:06.740Z,39.34
2018-05-21T09:49:06.806Z,40.79
2018-05-21T09:50:06.781Z,41.74
2018-05-21T09:51:06.812Z,41.84
2018-05-21T09:52:06.825Z,40.99
2018-05-21T09:53:06.838Z,41.45
2018-05-21T09:54:06.859Z,42.02
2018-05-21T09:55:06.957Z,41.47
2018-05-21T09:56:06.889Z,42.05
2018-05-21T09:57:06.904Z,40.25
2018-05-21T09:58:06.967Z,39.00
2018-05-21T09:59:07.801Z,38.71
2018-05-21T10:00:06.992Z,38.57
2018-05-21T10:01:07.009Z,38.87
2018-05-21T10:02:07.009Z,41.22
2018-05-21T10:03:07.038Z,42.43
2018-05-21T10:04:07.111Z,39.96
2018-05-21T10:05:07.066Z,39.47
2018-05-21T10:06:07.097Z,39.86
2018-05-21T10:07:07.154Z,38.77
2018-05-21T10:08:07.140Z,38.85
2018-05-21T10:09:07.162Z,38.17
2018-05-21T10:10:07.208Z,38.71
2018-05-21T10:11:07.242Z,39.70
2018-05-21T10:12:07.242Z,38.89
2018-05-21T10:13:07.226Z,37.54
2018-05-21T10:14:07.295Z,36.98
2018-05-21T10:15:07.262Z,36.67
2018-05-21T10:16:07.364Z,36.85
2018-05-21T10:17:07.321Z,38.40
2018-05-21T10:18:07.415Z,38.65
2018-05-21T10:19:07.346Z,39.04
2018-05-21T10:20:07.401Z,38.11
2018-05-21T10:21:07.454Z,37.24
2018-05-21T10:22:07.485Z,38.87
2018-05-21T10:23:07.410Z,38.17
2018-05-21T10:24:07.446Z,38.67
2018-05-21T10:25:07.448Z,39.41
2018-05-21T10:26:07.579Z,39.12
2018-05-21T10:27:07.492Z,39.36
2018-05-21T10:28:07.545Z,38.60
2018-05-21T10:29:07.560Z,37.39
2018-05-21T10:30:07.551Z,38.25
2018-05-21T10:31:07.633Z,38.46
2018-05-21T10:32:07.613Z,38.27
2018-05-21T10:33:07.601Z,38.64
2018-05-21T10:34:07.639Z,38.56
2018-05-21T10:35:07.709Z,38.46
2018-05-21T10:36:07.665Z,37.39
2018-05-21T10:37:07.820Z,38.29
2018-05-21T10:38:07.697Z,37.14
2018-05-21T10:39:07.711Z,36.08
2018-05-21T10:40:07.737Z,35.99
2018-05-21T10:41:07.780Z,36.65
2018-05-21T10:42:07.831Z,37.68
2018-05-21T10:43:07.781Z,38.25
2018-05-21T10:44:07.796Z,37.86
2018-05-21T10:45:07.811Z,37.65
2018-05-21T10:46:07.856Z,38.40
2018-05-21T10:47:07.903Z,38.13
2018-05-21T10:48:07.885Z,38.04
2018-05-21T10:49:07.908Z,37.90
2018-05-21T10:50:07.893Z,38.00
2018-05-21T10:51:07.910Z,38.19
2018-05-21T10:52:07.912Z,38.31
2018-05-21T10:53:07.974Z,37.92
2018-05-21T10:54:07.941Z,37.90
2018-05-21T10:55:07.951Z,38.39
2018-05-21T10:56:08.023Z,39.76
2018-05-21T10:57:07.976Z,39.16
2018-05-21T10:58:08.019Z,38.48
2018-05-21T10:59:08.006Z,38.66
2018-05-21T11:00:08.016Z,38.73
2018-05-21T11:01:08.034Z,39.82
2018-05-21T11:02:08.029Z,39.34
2018-05-21T11:03:08.044Z,38.79
2018-05-21T11:04:08.138Z,38.19
2018-05-21T11:05:08.104Z,37.41
2018-05-21T11:06:08.085Z,38.00
2018-05-21T11:07:08.176Z,39.03
2018-05-21T11:08:08.107Z,38.85
2018-05-21T11:09:08.114Z,38.96
2018-05-21T11:10:08.138Z,37.71
2018-05-21T11:11:08.138Z,37.87
2018-05-21T11:12:08.230Z,38.76
2018-05-21T11:13:08.148Z,38.56
2018-05-21T11:14:08.159Z,39.70
2018-05-21T11:15:08.197Z,40.31
2018-05-21T11:17:08.245Z,39.26
2018-05-21T11:18:08.226Z,39.06
2018-05-21T11:19:08.229Z,38.66
2018-05-21T11:20:08.210Z,38.19
2018-05-21T11:21:08.258Z,38.48
2018-05-21T11:22:08.302Z,38.87
2018-05-21T11:23:08.242Z,38.00
2018-05-21T11:24:08.289Z,38.37
2018-05-21T11:25:08.258Z,38.17
2018-05-21T11:26:08.278Z,37.98
2018-05-21T11:27:08.322Z,38.56
2018-05-21T11:28:08.289Z,38.66
2018-05-21T11:29:08.341Z,39.62
2018-05-21T11:30:08.300Z,38.85
2018-05-21T11:31:08.302Z,38.37
2018-05-21T11:32:08.341Z,38.17
2018-05-21T11:33:08.309Z,38.66
2018-05-21T11:34:08.325Z,37.98
2018-05-21T11:35:08.335Z,37.11
2018-05-21T11:36:08.857Z,37.19
2018-05-21T11:37:08.402Z,37.79
2018-05-21T11:38:08.370Z,37.32
2018-05-21T11:39:08.369Z,37.13
2018-05-21T11:40:08.487Z,36.44
2018-05-21T11:41:08.396Z,36.44
2018-05-21T11:42:08.384Z,36.08
2018-05-21T11:43:08.462Z,35.01
2018-05-21T11:44:08.424Z,35.88
2018-05-21T11:45:08.409Z,37.30
2018-05-21T11:46:08.443Z,38.27
2018-05-21T11:47:08.475Z,38.95
2018-05-21T11:48:08.433Z,38.73
2018-05-21T11:49:08.441Z,38.54
2018-05-21T11:50:08.457Z,38.76
2018-05-21T11:51:08.452Z,38.78
2018-05-21T11:52:08.523Z,38.99
2018-05-21T11:53:08.472Z,38.68
2018-05-21T11:54:08.483Z,37.98
2018-05-21T11:55:08.482Z,38.17
2018-05-21T11:56:08.498Z,38.64
2018-05-21T11:57:08.523Z,38.73
2018-05-21T11:58:08.571Z,37.79
2018-05-21T11:59:08.515Z,37.67
2018-05-21T12:00:08.572Z,38.25
2018-05-21T12:01:08.542Z,38.06
2018-05-21T12:02:08.639Z,37.96
2018-05-21T12:03:08.576Z,37.30
2018-05-21T12:04:08.551Z,38.17
2018-05-21T12:05:08.555Z,37.40
2018-05-21T12:06:08.700Z,37.28
2018-05-21T12:07:08.571Z,37.40
2018-05-21T12:08:08.578Z,37.69
2018-05-21T12:09:08.614Z,37.41
2018-05-21T12:10:08.592Z,36.54
2018-05-21T12:11:08.602Z,36.43
2018-05-21T12:12:08.597Z,36.72
2018-05-21T12:13:08.607Z,36.52
2018-05-21T12:14:08.664Z,36.43
2018-05-21T12:15:08.620Z,37.11
2018-05-21T12:16:09.374Z,36.62
2018-05-21T12:17:08.700Z,37.30
2018-05-21T12:18:08.642Z,37.67
2018-05-21T12:19:08.715Z,38.76
2018-05-21T12:20:08.657Z,38.27
2018-05-21T12:21:08.676Z,37.59
2018-05-21T12:22:08.684Z,38.19
2018-05-21T12:23:08.688Z,37.71
2018-05-21T12:24:08.738Z,37.34
2018-05-21T12:25:08.741Z,36.83
2018-05-21T12:26:09.375Z,37.11
2018-05-21T12:27:08.770Z,37.40
2018-05-21T12:28:08.711Z,38.17
2018-05-21T12:29:08.822Z,38.27
2018-05-21T12:30:08.752Z,37.49
2018-05-21T12:31:08.760Z,37.30
2018-05-21T12:32:08.756Z,37.49
2018-05-21T12:33:08.770Z,37.38
2018-05-21T12:34:08.764Z,37.49
2018-05-21T12:35:08.815Z,37.49
2018-05-21T12:36:08.765Z,37.09
2018-05-21T12:37:08.771Z,37.77
2018-05-21T12:38:08.881Z,38.15
2018-05-21T12:39:08.834Z,37.88
2018-05-21T12:40:08.841Z,38.17
2018-05-21T12:41:08.797Z,38.27
2018-05-21T12:42:08.819Z,38.06
2018-05-21T12:43:08.872Z,37.40
2018-05-21T12:44:08.871Z,37.01
2018-05-21T12:45:08.881Z,37.11
2018-05-21T12:46:08.872Z,36.25
2018-05-21T12:47:08.902Z,36.83
2018-05-21T12:48:08.862Z,35.66
2018-05-21T12:49:08.852Z,35.94
2018-05-21T12:50:08.905Z,37.40
2018-05-21T12:51:08.870Z,37.40
2018-05-21T12:52:08.935Z,37.01
2018-05-21T12:53:08.892Z,37.21
2018-05-21T12:54:09.013Z,37.30
2018-05-21T12:55:08.924Z,37.69
2018-05-21T12:56:08.898Z,37.59
2018-05-21T12:57:08.908Z,37.59
2018-05-21T12:58:08.971Z,37.40
2018-05-21T12:59:08.963Z,37.38
2018-05-21T13:00:08.943Z,37.30
2018-05-21T13:01:08.938Z,38.17
2018-05-21T13:02:08.930Z,38.56
2018-05-21T13:03:08.949Z,37.69
2018-05-21T13:04:08.981Z,37.81
2018-05-21T13:05:09.071Z,36.35
2018-05-21T13:06:09.023Z,36.06
2018-05-21T13:07:08.971Z,36.74
2018-05-21T13:08:08.983Z,37.41
2018-05-21T13:09:09.032Z,35.75